sensor_id;sensor_type;location;lat;lon;timestamp;temperature;humidity
11047;DHT22;5576;50.008;10.596;2023-04-26T00:02:02;5.00;99.90
11047;DHT22;5576;50.008;10.596;2023-04-26T00:04:30;5.10;99.90
11047;DHT22;5576;50.008;10.596;2023-04-26T00:06:56;5.10;99.90
11047;DHT22;5576;50.008;10.596;2023-04-26T00:09:21;5.40;99.90
11047;DHT22;5576;50.008;10.596;2023-04-26T00:11:48;5.10;99.90
11047;DHT22;5576;50.008;10.596;2023-04-26T00:14:13;5.20;99.90
11047;DHT22;5576;50.008;10.596;2023-04-26T00:16:39;2.10;99.90
11047;DHT22;5576;50.008;10.596;2023-04-26T00:19:05;5.20;99.90
11047;DHT22;5576;50.008;10.596;2023-04-26T00:21:31;5.30;99.90
11047;DHT22;5576;50.008;10.596;2023-04-26T00:23:56;5.60;99.90
11047;DHT22;5576;50.008;10.596;2023-04-26T00:26:22;5.70;99.90
11047;DHT22;5576;50.008;10.596;2023-04-26T00:28:48;3.30;99.90
11047;DHT22;5576;50.008;10.596;2023-04-26T00:31:15;7.80;99.90
11047;DHT22;5576;50.008;10.596;2023-04-26T00:33:41;2.90;99.90
11047;DHT22;5576;50.008;10.596;2023-04-26T00:36:07;6.10;99.90
11047;DHT22;5576;50.008;10.596;2023-04-26T00:38:33;3.60;99.90
11047;DHT22;5576;50.008;10.596;2023-04-26T00:40:59;8.40;99.90
11047;DHT22;5576;50.008;10.596;2023-04-26T00:43:25;6.10;99.90
11047;DHT22;5576;50.008;10.596;2023-04-26T00:45:50;6.30;99.90
11047;DHT22;5576;50.008;10.596;2023-04-26T00:48:17;6.30;99.90
11047;DHT22;5576;50.008;10.596;2023-04-26T00:50:43;6.20;99.90
11047;DHT22;5576;50.008;10.596;2023-04-26T00:53:10;9.40;99.90
11047;DHT22;5576;50.008;10.596;2023-04-26T00:55:40;6.00;99.90
11047;DHT22;5576;50.008;10.596;2023-04-26T00:58:06;6.00;99.90
11047;DHT22;5576;50.008;10.596;2023-04-26T01:00:32;5.20;99.90
11047;DHT22;5576;50.008;10.596;2023-04-26T01:02:58;6.00;99.90
11047;DHT22;5576;50.008;10.596;2023-04-26T01:05:24;7.90;99.90
11047;DHT22;5576;50.008;10.596;2023-04-26T01:07:50;6.10;99.90
11047;DHT22;5576;50.008;10.596;2023-04-26T01:10:17;6.10;99.90
11047;DHT22;5576;50.008;10.596;2023-04-26T01:12:42;6.00;99.90
11047;DHT22;5576;50.008;10.596;2023-04-26T01:15:09;7.10;99.90
11047;DHT22;5576;50.008;10.596;2023-04-26T01:17:35;5.60;99.90
11047;DHT22;5576;50.008;10.596;2023-04-26T01:20:04;5.70;99.90
11047;DHT22;5576;50.008;10.596;2023-04-26T01:22:33;5.70;99.90
11047;DHT22;5576;50.008;10.596;2023-04-26T01:25:02;7.20;99.90
11047;DHT22;5576;50.008;10.596;2023-04-26T01:27:31;4.00;99.90
11047;DHT22;5576;50.008;10.596;2023-04-26T01:29:57;5.20;99.90
11047;DHT22;5576;50.008;10.596;2023-04-26T01:32:23;5.80;99.90
11047;DHT22;5576;50.008;10.596;2023-04-26T01:34:48;5.80;99.90
11047;DHT22;5576;50.008;10.596;2023-04-26T01:37:17;5.90;99.90
11047;DHT22;5576;50.008;10.596;2023-04-26T01:39:43;4.90;99.90
11047;DHT22;5576;50.008;10.596;2023-04-26T01:42:08;5.90;99.90
11047;DHT22;5576;50.008;10.596;2023-04-26T01:44:34;5.90;99.90
11047;DHT22;5576;50.008;10.596;2023-04-26T01:47:00;5.90;99.90
11047;DHT22;5576;50.008;10.596;2023-04-26T01:51:54;3.60;99.90
11047;DHT22;5576;50.008;10.596;2023-04-26T01:54:20;5.60;99.90
11047;DHT22;5576;50.008;10.596;2023-04-26T01:56:46;5.60;99.90
11047;DHT22;5576;50.008;10.596;2023-04-26T01:59:11;5.60;99.90
11047;DHT22;5576;50.008;10.596;2023-04-26T02:01:37;5.70;99.90
11047;DHT22;5576;50.008;10.596;2023-04-26T02:04:05;5.80;99.90
11047;DHT22;5576;50.008;10.596;2023-04-26T02:06:31;5.80;99.90
11047;DHT22;5576;50.008;10.596;2023-04-26T02:08:57;5.70;99.90
11047;DHT22;5576;50.008;10.596;2023-04-26T02:11:22;3.00;99.90
11047;DHT22;5576;50.008;10.596;2023-04-26T02:13:50;5.80;99.90
11047;DHT22;5576;50.008;10.596;2023-04-26T02:16:20;5.70;99.90
11047;DHT22;5576;50.008;10.596;2023-04-26T02:18:46;8.40;99.90
11047;DHT22;5576;50.008;10.596;2023-04-26T02:21:15;5.60;99.90
11047;DHT22;5576;50.008;10.596;2023-04-26T02:23:42;5.50;99.90
11047;DHT22;5576;50.008;10.596;2023-04-26T02:26:08;5.40;99.90
11047;DHT22;5576;50.008;10.596;2023-04-26T02:28:34;5.10;99.90
11047;DHT22;5576;50.008;10.596;2023-04-26T02:31:01;4.80;99.90
11047;DHT22;5576;50.008;10.596;2023-04-26T02:33:28;4.80;99.90
11047;DHT22;5576;50.008;10.596;2023-04-26T02:35:57;4.90;99.90
11047;DHT22;5576;50.008;10.596;2023-04-26T02:38:24;4.80;99.90
11047;DHT22;5576;50.008;10.596;2023-04-26T02:41:00;4.80;99.90
11047;DHT22;5576;50.008;10.596;2023-04-26T02:43:25;4.80;99.90
11047;DHT22;5576;50.008;10.596;2023-04-26T02:45:51;4.80;99.90
11047;DHT22;5576;50.008;10.596;2023-04-26T02:48:17;4.60;99.90
11047;DHT22;5576;50.008;10.596;2023-04-26T02:50:44;3.70;99.90
11047;DHT22;5576;50.008;10.596;2023-04-26T02:53:13;4.00;99.90
11047;DHT22;5576;50.008;10.596;2023-04-26T02:55:38;3.90;99.90
11047;DHT22;5576;50.008;10.596;2023-04-26T02:58:04;3.90;99.90
11047;DHT22;5576;50.008;10.596;2023-04-26T03:00:31;3.70;99.90
11047;DHT22;5576;50.008;10.596;2023-04-26T03:02:59;3.50;99.90
11047;DHT22;5576;50.008;10.596;2023-04-26T03:05:24;3.70;99.90
11047;DHT22;5576;50.008;10.596;2023-04-26T03:07:51;3.70;99.90
11047;DHT22;5576;50.008;10.596;2023-04-26T03:10:17;3.70;99.90
11047;DHT22;5576;50.008;10.596;2023-04-26T03:12:43;3.70;99.90
11047;DHT22;5576;50.008;10.596;2023-04-26T03:15:09;3.70;99.90
11047;DHT22;5576;50.008;10.596;2023-04-26T03:17:36;5.60;99.90
11047;DHT22;5576;50.008;10.596;2023-04-26T03:20:02;3.80;99.90
11047;DHT22;5576;50.008;10.596;2023-04-26T03:22:30;3.80;99.90
11047;DHT22;5576;50.008;10.596;2023-04-26T03:24:56;5.40;99.90
11047;DHT22;5576;50.008;10.596;2023-04-26T03:27:23;3.80;99.90
11047;DHT22;5576;50.008;10.596;2023-04-26T03:29:49;3.50;99.90
11047;DHT22;5576;50.008;10.596;2023-04-26T03:32:15;6.10;99.90
11047;DHT22;5576;50.008;10.596;2023-04-26T03:34:41;3.50;99.90
11047;DHT22;5576;50.008;10.596;2023-04-26T03:37:06;3.50;99.90
11047;DHT22;5576;50.008;10.596;2023-04-26T03:39:32;6.70;99.90
11047;DHT22;5576;50.008;10.596;2023-04-26T03:41:59;3.50;99.90
11047;DHT22;5576;50.008;10.596;2023-04-26T03:44:25;3.50;99.90
11047;DHT22;5576;50.008;10.596;2023-04-26T03:46:51;3.30;99.90
11047;DHT22;5576;50.008;10.596;2023-04-26T03:49:17;3.30;99.90
11047;DHT22;5576;50.008;10.596;2023-04-26T03:51:43;3.20;99.90
11047;DHT22;5576;50.008;10.596;2023-04-26T03:54:09;3.90;99.90
11047;DHT22;5576;50.008;10.596;2023-04-26T03:56:35;3.00;99.90
11047;DHT22;5576;50.008;10.596;2023-04-26T03:59:01;3.00;99.90
11047;DHT22;5576;50.008;10.596;2023-04-26T04:01:27;3.10;99.90
11047;DHT22;5576;50.008;10.596;2023-04-26T04:03:53;3.10;99.90
11047;DHT22;5576;50.008;10.596;2023-04-26T04:06:19;3.20;99.90
11047;DHT22;5576;50.008;10.596;2023-04-26T04:08:46;1.80;99.90
11047;DHT22;5576;50.008;10.596;2023-04-26T04:11:12;5.10;99.90
11047;DHT22;5576;50.008;10.596;2023-04-26T04:13:39;2.60;99.90
11047;DHT22;5576;50.008;10.596;2023-04-26T04:16:05;2.70;99.90
11047;DHT22;5576;50.008;10.596;2023-04-26T04:18:31;2.70;99.90
11047;DHT22;5576;50.008;10.596;2023-04-26T04:20:57;2.70;99.90
11047;DHT22;5576;50.008;10.596;2023-04-26T04:23:23;2.70;99.90
11047;DHT22;5576;50.008;10.596;2023-04-26T04:25:49;-0.10;99.90
11047;DHT22;5576;50.008;10.596;2023-04-26T04:28:16;2.40;99.90
11047;DHT22;5576;50.008;10.596;2023-04-26T04:30:43;2.50;99.90
11047;DHT22;5576;50.008;10.596;2023-04-26T04:33:11;2.60;99.90
11047;DHT22;5576;50.008;10.596;2023-04-26T04:35:40;2.90;99.90
11047;DHT22;5576;50.008;10.596;2023-04-26T04:38:06;2.60;99.90
11047;DHT22;5576;50.008;10.596;2023-04-26T04:40:33;2.40;99.90
11047;DHT22;5576;50.008;10.596;2023-04-26T04:42:59;1.90;99.90
11047;DHT22;5576;50.008;10.596;2023-04-26T04:45:25;2.50;99.90
11047;DHT22;5576;50.008;10.596;2023-04-26T04:47:53;1.00;99.90
11047;DHT22;5576;50.008;10.596;2023-04-26T04:50:20;2.90;99.90
11047;DHT22;5576;50.008;10.596;2023-04-26T04:52:48;5.30;99.90
11047;DHT22;5576;50.008;10.596;2023-04-26T04:55:14;3.00;99.90
11047;DHT22;5576;50.008;10.596;2023-04-26T04:57:40;3.20;99.90
11047;DHT22;5576;50.008;10.596;2023-04-26T05:00:07;3.50;99.90
11047;DHT22;5576;50.008;10.596;2023-04-26T05:02:40;3.50;99.90
11047;DHT22;5576;50.008;10.596;2023-04-26T05:05:07;3.50;99.90
11047;DHT22;5576;50.008;10.596;2023-04-26T05:07:33;3.60;99.90
11047;DHT22;5576;50.008;10.596;2023-04-26T05:10:00;3.40;99.90
11047;DHT22;5576;50.008;10.596;2023-04-26T05:12:26;-0.40;99.90
11047;DHT22;5576;50.008;10.596;2023-04-26T05:14:53;3.40;99.90
11047;DHT22;5576;50.008;10.596;2023-04-26T05:17:19;3.40;99.90
11047;DHT22;5576;50.008;10.596;2023-04-26T05:19:45;3.60;99.90
11047;DHT22;5576;50.008;10.596;2023-04-26T05:22:11;3.60;99.90
11047;DHT22;5576;50.008;10.596;2023-04-26T05:24:45;0.10;99.90
11047;DHT22;5576;50.008;10.596;2023-04-26T05:27:13;3.80;99.90
11047;DHT22;5576;50.008;10.596;2023-04-26T05:29:50;4.00;99.90
11047;DHT22;5576;50.008;10.596;2023-04-26T05:32:35;7.00;99.90
11047;DHT22;5576;50.008;10.596;2023-04-26T05:35:12;3.90;99.90
11047;DHT22;5576;50.008;10.596;2023-04-26T05:37:38;4.00;99.90
11047;DHT22;5576;50.008;10.596;2023-04-26T05:40:05;4.00;99.90
11047;DHT22;5576;50.008;10.596;2023-04-26T05:42:32;4.10;99.90
11047;DHT22;5576;50.008;10.596;2023-04-26T05:44:58;8.10;99.90
11047;DHT22;5576;50.008;10.596;2023-04-26T05:47:24;4.40;99.90
11047;DHT22;5576;50.008;10.596;2023-04-26T05:49:51;4.60;99.90
11047;DHT22;5576;50.008;10.596;2023-04-26T05:52:17;4.70;99.90
11047;DHT22;5576;50.008;10.596;2023-04-26T05:54:43;7.50;99.90
11047;DHT22;5576;50.008;10.596;2023-04-26T05:57:09;4.60;99.90
11047;DHT22;5576;50.008;10.596;2023-04-26T05:59:35;5.40;99.90
11047;DHT22;5576;50.008;10.596;2023-04-26T06:02:01;5.00;99.90
11047;DHT22;5576;50.008;10.596;2023-04-26T06:04:27;5.00;99.90
11047;DHT22;5576;50.008;10.596;2023-04-26T06:07:01;7.70;99.90
11047;DHT22;5576;50.008;10.596;2023-04-26T06:09:30;6.70;99.90
11047;DHT22;5576;50.008;10.596;2023-04-26T06:11:56;4.20;99.90
11047;DHT22;5576;50.008;10.596;2023-04-26T06:14:21;5.00;99.90
11047;DHT22;5576;50.008;10.596;2023-04-26T06:16:47;4.80;99.90
11047;DHT22;5576;50.008;10.596;2023-04-26T06:19:13;6.50;99.90
11047;DHT22;5576;50.008;10.596;2023-04-26T06:21:39;5.90;99.90
11047;DHT22;5576;50.008;10.596;2023-04-26T06:24:05;4.80;99.90
11047;DHT22;5576;50.008;10.596;2023-04-26T06:26:31;6.60;99.90
11047;DHT22;5576;50.008;10.596;2023-04-26T06:28:58;5.00;99.90
11047;DHT22;5576;50.008;10.596;2023-04-26T06:31:25;5.30;99.90
11047;DHT22;5576;50.008;10.596;2023-04-26T06:33:50;5.30;99.90
11047;DHT22;5576;50.008;10.596;2023-04-26T06:36:16;5.50;99.90
11047;DHT22;5576;50.008;10.596;2023-04-26T06:38:42;8.60;99.90
11047;DHT22;5576;50.008;10.596;2023-04-26T06:41:08;3.30;99.90
11047;DHT22;5576;50.008;10.596;2023-04-26T06:43:34;5.80;99.90
11047;DHT22;5576;50.008;10.596;2023-04-26T06:46:05;5.20;99.90
11047;DHT22;5576;50.008;10.596;2023-04-26T06:48:31;7.20;99.90
11047;DHT22;5576;50.008;10.596;2023-04-26T06:50:57;6.10;99.90
11047;DHT22;5576;50.008;10.596;2023-04-26T06:53:23;6.20;99.90
11047;DHT22;5576;50.008;10.596;2023-04-26T06:55:49;6.20;99.90
11047;DHT22;5576;50.008;10.596;2023-04-26T06:58:14;6.20;99.90
11047;DHT22;5576;50.008;10.596;2023-04-26T07:00:40;6.20;99.90
11047;DHT22;5576;50.008;10.596;2023-04-26T07:03:06;6.20;99.90
11047;DHT22;5576;50.008;10.596;2023-04-26T07:05:31;8.40;99.90
11047;DHT22;5576;50.008;10.596;2023-04-26T07:07:57;6.20;99.90
11047;DHT22;5576;50.008;10.596;2023-04-26T07:10:23;6.40;99.90
11047;DHT22;5576;50.008;10.596;2023-04-26T07:12:50;6.40;99.90
11047;DHT22;5576;50.008;10.596;2023-04-26T07:15:16;10.00;99.90
11047;DHT22;5576;50.008;10.596;2023-04-26T07:17:41;5.60;99.90
11047;DHT22;5576;50.008;10.596;2023-04-26T07:20:07;6.70;99.90
11047;DHT22;5576;50.008;10.596;2023-04-26T07:22:34;6.80;99.90
11047;DHT22;5576;50.008;10.596;2023-04-26T07:25:00;8.80;99.90
11047;DHT22;5576;50.008;10.596;2023-04-26T07:27:26;6.70;99.90
11047;DHT22;5576;50.008;10.596;2023-04-26T07:29:53;6.90;99.90
11047;DHT22;5576;50.008;10.596;2023-04-26T07:32:20;9.40;99.90
11047;DHT22;5576;50.008;10.596;2023-04-26T07:34:46;6.90;99.90
11047;DHT22;5576;50.008;10.596;2023-04-26T07:37:12;5.70;99.90
11047;DHT22;5576;50.008;10.596;2023-04-26T07:39:37;7.20;99.90
11047;DHT22;5576;50.008;10.596;2023-04-26T07:42:03;7.20;99.90
11047;DHT22;5576;50.008;10.596;2023-04-26T07:44:29;7.30;99.90
11047;DHT22;5576;50.008;10.596;2023-04-26T07:46:54;7.40;99.90
11047;DHT22;5576;50.008;10.596;2023-04-26T07:49:20;10.00;99.90
11047;DHT22;5576;50.008;10.596;2023-04-26T07:51:47;7.50;99.90
11047;DHT22;5576;50.008;10.596;2023-04-26T07:54:13;7.50;99.90
11047;DHT22;5576;50.008;10.596;2023-04-26T07:56:39;7.60;99.90
11047;DHT22;5576;50.008;10.596;2023-04-26T07:59:05;7.60;99.90
11047;DHT22;5576;50.008;10.596;2023-04-26T08:01:30;10.10;99.90
11047;DHT22;5576;50.008;10.596;2023-04-26T08:03:56;10.90;99.90
11047;DHT22;5576;50.008;10.596;2023-04-26T08:06:22;11.00;99.90
11047;DHT22;5576;50.008;10.596;2023-04-26T08:08:48;8.50;99.90
11047;DHT22;5576;50.008;10.596;2023-04-26T08:11:15;10.40;99.90
11047;DHT22;5576;50.008;10.596;2023-04-26T08:13:41;4.30;99.90
11047;DHT22;5576;50.008;10.596;2023-04-26T08:16:08;8.30;99.90
11047;DHT22;5576;50.008;10.596;2023-04-26T08:18:34;8.10;99.90
11047;DHT22;5576;50.008;10.596;2023-04-26T08:21:00;8.20;99.90
11047;DHT22;5576;50.008;10.596;2023-04-26T08:23:26;8.40;99.90
11047;DHT22;5576;50.008;10.596;2023-04-26T08:25:53;8.40;99.90
11047;DHT22;5576;50.008;10.596;2023-04-26T08:28:18;8.40;99.90
11047;DHT22;5576;50.008;10.596;2023-04-26T08:30:44;8.70;99.90
11047;DHT22;5576;50.008;10.596;2023-04-26T08:33:10;10.50;99.90
11047;DHT22;5576;50.008;10.596;2023-04-26T08:35:36;8.70;99.90
11047;DHT22;5576;50.008;10.596;2023-04-26T08:38:02;8.60;99.90
11047;DHT22;5576;50.008;10.596;2023-04-26T08:40:27;8.50;99.90
11047;DHT22;5576;50.008;10.596;2023-04-26T08:42:53;8.50;99.90
11047;DHT22;5576;50.008;10.596;2023-04-26T08:45:20;8.50;99.90
11047;DHT22;5576;50.008;10.596;2023-04-26T08:47:48;8.40;99.90
11047;DHT22;5576;50.008;10.596;2023-04-26T08:50:19;8.50;99.90
11047;DHT22;5576;50.008;10.596;2023-04-26T08:52:47;8.50;99.90
11047;DHT22;5576;50.008;10.596;2023-04-26T08:55:15;8.70;99.90
11047;DHT22;5576;50.008;10.596;2023-04-26T08:57:45;8.70;99.90
11047;DHT22;5576;50.008;10.596;2023-04-26T09:00:11;12.60;99.90
11047;DHT22;5576;50.008;10.596;2023-04-26T09:02:39;8.90;99.90
11047;DHT22;5576;50.008;10.596;2023-04-26T09:05:07;5.20;99.90
11047;DHT22;5576;50.008;10.596;2023-04-26T09:07:38;10.90;99.90
11047;DHT22;5576;50.008;10.596;2023-04-26T09:10:04;8.60;99.90
11047;DHT22;5576;50.008;10.596;2023-04-26T09:12:31;8.70;99.90
11047;DHT22;5576;50.008;10.596;2023-04-26T09:14:57;8.70;99.90
11047;DHT22;5576;50.008;10.596;2023-04-26T09:19:51;9.70;99.90
11047;DHT22;5576;50.008;10.596;2023-04-26T09:22:34;6.70;99.90
11047;DHT22;5576;50.008;10.596;2023-04-26T09:25:02;8.90;99.90
11047;DHT22;5576;50.008;10.596;2023-04-26T09:27:39;8.90;99.90
11047;DHT22;5576;50.008;10.596;2023-04-26T09:32:43;8.70;99.90
11047;DHT22;5576;50.008;10.596;2023-04-26T09:35:31;8.80;99.90
11047;DHT22;5576;50.008;10.596;2023-04-26T09:38:00;9.00;99.90
11047;DHT22;5576;50.008;10.596;2023-04-26T09:40:29;8.50;99.90
11047;DHT22;5576;50.008;10.596;2023-04-26T09:42:56;9.90;99.90
11047;DHT22;5576;50.008;10.596;2023-04-26T09:45:24;12.30;99.90
11047;DHT22;5576;50.008;10.596;2023-04-26T09:47:50;10.20;99.90
11047;DHT22;5576;50.008;10.596;2023-04-26T09:50:31;9.90;99.90
11047;DHT22;5576;50.008;10.596;2023-04-26T09:52:58;12.20;99.90
11047;DHT22;5576;50.008;10.596;2023-04-26T09:55:26;7.20;99.90
11047;DHT22;5576;50.008;10.596;2023-04-26T09:57:53;9.60;99.90
11047;DHT22;5576;50.008;10.596;2023-04-26T10:00:20;9.70;99.90
11047;DHT22;5576;50.008;10.596;2023-04-26T10:02:46;9.90;99.90
11047;DHT22;5576;50.008;10.596;2023-04-26T10:05:12;10.10;99.90
11047;DHT22;5576;50.008;10.596;2023-04-26T10:07:38;13.20;99.90
11047;DHT22;5576;50.008;10.596;2023-04-26T10:10:07;10.90;99.90
11047;DHT22;5576;50.008;10.596;2023-04-26T10:12:33;7.20;99.90
11047;DHT22;5576;50.008;10.596;2023-04-26T10:14:59;10.90;99.90
11047;DHT22;5576;50.008;10.596;2023-04-26T10:17:25;10.80;99.90
11047;DHT22;5576;50.008;10.596;2023-04-26T10:19:54;10.60;99.90
11047;DHT22;5576;50.008;10.596;2023-04-26T10:22:23;10.60;99.90
11047;DHT22;5576;50.008;10.596;2023-04-26T10:24:50;9.30;99.90
11047;DHT22;5576;50.008;10.596;2023-04-26T10:27:46;10.50;99.90
11047;DHT22;5576;50.008;10.596;2023-04-26T10:30:13;10.50;99.90
11047;DHT22;5576;50.008;10.596;2023-04-26T10:35:24;10.60;99.90
11047;DHT22;5576;50.008;10.596;2023-04-26T10:38:07;10.80;99.90
11047;DHT22;5576;50.008;10.596;2023-04-26T10:40:37;13.90;99.90
11047;DHT22;5576;50.008;10.596;2023-04-26T10:45:41;10.80;99.90
11047;DHT22;5576;50.008;10.596;2023-04-26T10:53:31;10.60;99.90
11047;DHT22;5576;50.008;10.596;2023-04-26T10:55:57;10.60;99.90
11047;DHT22;5576;50.008;10.596;2023-04-26T10:58:28;14.40;99.90
11047;DHT22;5576;50.008;10.596;2023-04-26T11:01:15;10.60;99.90
11047;DHT22;5576;50.008;10.596;2023-04-26T11:03:44;10.90;99.90
11047;DHT22;5576;50.008;10.596;2023-04-26T11:06:28;13.60;99.90
11047;DHT22;5576;50.008;10.596;2023-04-26T11:09:32;11.80;99.90
11047;DHT22;5576;50.008;10.596;2023-04-26T11:11:58;11.80;99.90
11047;DHT22;5576;50.008;10.596;2023-04-26T11:14:24;12.10;99.90
11047;DHT22;5576;50.008;10.596;2023-04-26T11:16:50;14.00;99.90
11047;DHT22;5576;50.008;10.596;2023-04-26T11:19:16;15.50;99.90
11047;DHT22;5576;50.008;10.596;2023-04-26T11:21:42;12.20;99.90
11047;DHT22;5576;50.008;10.596;2023-04-26T11:24:07;12.20;99.90
11047;DHT22;5576;50.008;10.596;2023-04-26T11:26:33;12.40;99.90
11047;DHT22;5576;50.008;10.596;2023-04-26T11:29:00;12.40;99.90
11047;DHT22;5576;50.008;10.596;2023-04-26T11:31:26;12.50;99.90
11047;DHT22;5576;50.008;10.596;2023-04-26T11:33:59;12.30;99.90
11047;DHT22;5576;50.008;10.596;2023-04-26T11:36:25;12.40;99.90
11047;DHT22;5576;50.008;10.596;2023-04-26T11:38:51;12.10;99.90
11047;DHT22;5576;50.008;10.596;2023-04-26T11:41:18;11.80;99.90
11047;DHT22;5576;50.008;10.596;2023-04-26T11:43:47;11.60;99.90
11047;DHT22;5576;50.008;10.596;2023-04-26T11:46:13;10.70;99.90
11047;DHT22;5576;50.008;10.596;2023-04-26T11:48:39;11.70;99.90
11047;DHT22;5576;50.008;10.596;2023-04-26T11:51:06;12.00;99.90
11047;DHT22;5576;50.008;10.596;2023-04-26T11:53:35;15.60;99.90
11047;DHT22;5576;50.008;10.596;2023-04-26T11:56:02;11.80;99.90
11047;DHT22;5576;50.008;10.596;2023-04-26T11:58:28;11.80;99.90
11047;DHT22;5576;50.008;10.596;2023-04-26T12:00:57;11.70;99.90
11047;DHT22;5576;50.008;10.596;2023-04-26T12:03:29;12.60;99.90
11047;DHT22;5576;50.008;10.596;2023-04-26T12:05:55;11.70;99.90
11047;DHT22;5576;50.008;10.596;2023-04-26T12:08:25;13.90;99.90
11047;DHT22;5576;50.008;10.596;2023-04-26T12:10:50;11.80;99.90
11047;DHT22;5576;50.008;10.596;2023-04-26T12:13:18;8.50;99.90
11047;DHT22;5576;50.008;10.596;2023-04-26T12:15:45;12.00;99.90
11047;DHT22;5576;50.008;10.596;2023-04-26T12:18:12;12.10;99.90
11047;DHT22;5576;50.008;10.596;2023-04-26T12:20:40;12.10;99.90
11047;DHT22;5576;50.008;10.596;2023-04-26T12:23:08;12.10;99.90
11047;DHT22;5576;50.008;10.596;2023-04-26T12:25:36;12.00;99.90
11047;DHT22;5576;50.008;10.596;2023-04-26T12:28:04;12.10;99.90
11047;DHT22;5576;50.008;10.596;2023-04-26T12:30:30;12.20;99.90
11047;DHT22;5576;50.008;10.596;2023-04-26T12:33:03;12.30;99.90
11047;DHT22;5576;50.008;10.596;2023-04-26T12:35:30;14.00;99.90
11047;DHT22;5576;50.008;10.596;2023-04-26T12:37:56;11.60;99.90
11047;DHT22;5576;50.008;10.596;2023-04-26T12:40:25;12.40;99.90
11047;DHT22;5576;50.008;10.596;2023-04-26T12:42:51;12.40;99.90
11047;DHT22;5576;50.008;10.596;2023-04-26T12:45:18;12.40;99.90
11047;DHT22;5576;50.008;10.596;2023-04-26T12:47:44;12.40;99.90
11047;DHT22;5576;50.008;10.596;2023-04-26T12:50:11;12.20;99.90
11047;DHT22;5576;50.008;10.596;2023-04-26T12:52:39;12.30;99.90
11047;DHT22;5576;50.008;10.596;2023-04-26T12:55:06;12.30;99.90
11047;DHT22;5576;50.008;10.596;2023-04-26T12:57:33;12.40;99.90
11047;DHT22;5576;50.008;10.596;2023-04-26T12:59:59;15.10;99.90
11047;DHT22;5576;50.008;10.596;2023-04-26T13:02:25;13.10;99.90
11047;DHT22;5576;50.008;10.596;2023-04-26T13:04:51;13.40;99.90
11047;DHT22;5576;50.008;10.596;2023-04-26T13:07:17;13.90;99.90
11047;DHT22;5576;50.008;10.596;2023-04-26T13:09:42;14.20;99.90
11047;DHT22;5576;50.008;10.596;2023-04-26T13:12:08;14.10;99.90
11047;DHT22;5576;50.008;10.596;2023-04-26T13:14:34;13.60;99.90
11047;DHT22;5576;50.008;10.596;2023-04-26T13:17:00;14.00;99.90
11047;DHT22;5576;50.008;10.596;2023-04-26T13:19:26;14.30;99.90
11047;DHT22;5576;50.008;10.596;2023-04-26T13:21:52;13.90;99.90
11047;DHT22;5576;50.008;10.596;2023-04-26T13:24:18;15.70;99.90
11047;DHT22;5576;50.008;10.596;2023-04-26T13:26:44;13.60;99.90
11047;DHT22;5576;50.008;10.596;2023-04-26T13:29:10;16.60;99.90
11047;DHT22;5576;50.008;10.596;2023-04-26T13:31:35;13.20;99.90
11047;DHT22;5576;50.008;10.596;2023-04-26T13:34:02;13.30;99.90
11047;DHT22;5576;50.008;10.596;2023-04-26T13:36:28;15.80;99.90
11047;DHT22;5576;50.008;10.596;2023-04-26T13:38:53;13.70;99.90
11047;DHT22;5576;50.008;10.596;2023-04-26T13:41:19;13.70;99.90
11047;DHT22;5576;50.008;10.596;2023-04-26T13:43:46;13.90;99.90
11047;DHT22;5576;50.008;10.596;2023-04-26T13:46:12;15.70;99.90
11047;DHT22;5576;50.008;10.596;2023-04-26T13:48:38;12.40;99.90
11047;DHT22;5576;50.008;10.596;2023-04-26T13:51:05;13.20;99.90
11047;DHT22;5576;50.008;10.596;2023-04-26T13:53:30;13.10;99.90
11047;DHT22;5576;50.008;10.596;2023-04-26T13:55:56;13.30;99.90
11047;DHT22;5576;50.008;10.596;2023-04-26T13:58:22;13.10;99.90
11047;DHT22;5576;50.008;10.596;2023-04-26T14:00:48;17.20;99.90
11047;DHT22;5576;50.008;10.596;2023-04-26T14:03:13;14.10;99.90
11047;DHT22;5576;50.008;10.596;2023-04-26T14:05:39;15.20;99.90
11047;DHT22;5576;50.008;10.596;2023-04-26T14:08:05;13.80;99.90
11047;DHT22;5576;50.008;10.596;2023-04-26T14:10:32;14.70;99.90
11047;DHT22;5576;50.008;10.596;2023-04-26T14:12:58;13.50;99.90
11047;DHT22;5576;50.008;10.596;2023-04-26T14:15:24;15.80;99.90
11047;DHT22;5576;50.008;10.596;2023-04-26T14:17:50;13.50;99.90
11047;DHT22;5576;50.008;10.596;2023-04-26T14:20:16;12.60;99.90
11047;DHT22;5576;50.008;10.596;2023-04-26T14:22:42;13.50;99.90
11047;DHT22;5576;50.008;10.596;2023-04-26T14:25:08;13.60;99.90
11047;DHT22;5576;50.008;10.596;2023-04-26T14:27:34;13.40;99.90
11047;DHT22;5576;50.008;10.596;2023-04-26T14:29:59;14.70;99.90
11047;DHT22;5576;50.008;10.596;2023-04-26T14:32:25;13.40;99.90
11047;DHT22;5576;50.008;10.596;2023-04-26T14:34:51;14.20;99.90
11047;DHT22;5576;50.008;10.596;2023-04-26T14:37:17;14.50;99.90
11047;DHT22;5576;50.008;10.596;2023-04-26T14:39:48;16.80;99.90
11047;DHT22;5576;50.008;10.596;2023-04-26T14:42:13;16.60;99.90
11047;DHT22;5576;50.008;10.596;2023-04-26T14:44:39;14.00;99.90
11047;DHT22;5576;50.008;10.596;2023-04-26T14:47:05;15.00;99.90
11047;DHT22;5576;50.008;10.596;2023-04-26T14:49:31;17.20;99.90
11047;DHT22;5576;50.008;10.596;2023-04-26T14:51:57;13.90;99.90
11047;DHT22;5576;50.008;10.596;2023-04-26T14:54:22;13.90;99.90
11047;DHT22;5576;50.008;10.596;2023-04-26T14:56:48;13.70;99.90
11047;DHT22;5576;50.008;10.596;2023-04-26T14:59:15;13.80;99.90
11047;DHT22;5576;50.008;10.596;2023-04-26T15:01:41;13.80;99.90
11047;DHT22;5576;50.008;10.596;2023-04-26T15:04:07;15.50;99.90
11047;DHT22;5576;50.008;10.596;2023-04-26T15:06:32;14.10;99.90
11047;DHT22;5576;50.008;10.596;2023-04-26T15:08:59;14.40;99.30
11047;DHT22;5576;50.008;10.596;2023-04-26T15:11:24;14.40;97.90
11047;DHT22;5576;50.008;10.596;2023-04-26T15:13:50;14.50;99.50
11047;DHT22;5576;50.008;10.596;2023-04-26T15:16:17;16.50;98.90
11047;DHT22;5576;50.008;10.596;2023-04-26T15:18:42;15.90;98.10
11047;DHT22;5576;50.008;10.596;2023-04-26T15:21:13;14.80;96.60
11047;DHT22;5576;50.008;10.596;2023-04-26T15:23:40;14.70;96.50
11047;DHT22;5576;50.008;10.596;2023-04-26T15:26:05;14.60;97.30
11047;DHT22;5576;50.008;10.596;2023-04-26T15:28:31;14.30;97.50
11047;DHT22;5576;50.008;10.596;2023-04-26T15:31:02;14.40;96.80
11047;DHT22;5576;50.008;10.596;2023-04-26T15:33:28;11.90;97.60
11047;DHT22;5576;50.008;10.596;2023-04-26T15:35:55;14.70;96.80
11047;DHT22;5576;50.008;10.596;2023-04-26T15:38:21;13.70;96.80
11047;DHT22;5576;50.008;10.596;2023-04-26T15:40:47;16.70;97.80
11047;DHT22;5576;50.008;10.596;2023-04-26T15:43:15;14.90;98.60
11047;DHT22;5576;50.008;10.596;2023-04-26T15:45:41;15.00;97.60
11047;DHT22;5576;50.008;10.596;2023-04-26T15:48:06;15.00;97.50
11047;DHT22;5576;50.008;10.596;2023-04-26T15:50:32;14.80;97.50
11047;DHT22;5576;50.008;10.596;2023-04-26T15:52:58;12.20;97.10
11047;DHT22;5576;50.008;10.596;2023-04-26T15:55:24;14.70;96.30
11047;DHT22;5576;50.008;10.596;2023-04-26T15:57:50;14.60;96.80